Time;durP1;ratioP1;P1;durP2;ratioP2;P2;SDS_P1;SDS_P2;PMS_P1;PMS_P2;Temp;Humidity;BMP_temperature;BMP_pressure;BME280_temperature;BME280_humidity;BME280_pressure;Samples;Min_cycle;Max_cycle;Signal;HPM_P1;HPM_P2
2021/06/26 00:01:26;;;;;;;3.35;3.05;;;;;;;17.06;56.13;101222.22;4967480;28;20509;-83
2021/06/26 00:03:53;;;;;;;3.90;3.38;;;;;;;17.05;56.33;101218.69;4980014;28;20046;-82
2021/06/26 00:06:22;;;;;;;3.85;3.55;;;;;;;17.05;56.52;101225.75;4966608;28;20051;-83
2021/06/26 00:08:51;;;;;;;4.47;3.80;;;;;;;17.06;56.78;101223.06;4978844;28;20082;-84
2021/06/26 00:11:21;;;;;;;6.05;4.40;;;;;;;17.08;56.64;101221.25;4998038;28;20337;-84
2021/06/26 00:13:48;;;;;;;4.60;4.18;;;;;;;17.12;56.80;101219.41;4985249;28;20131;-82
2021/06/26 00:16:15;;;;;;;7.70;4.45;;;;;;;17.14;57.21;101228.16;4972844;28;20140;-82
2021/06/26 00:18:42;;;;;;;8.57;4.70;;;;;;;17.13;57.44;101229.94;4964357;28;20144;-83
2021/06/26 00:21:09;;;;;;;6.35;5.10;;;;;;;17.08;57.59;101223.91;4962421;28;20054;-83
2021/06/26 00:23:37;;;;;;;3.63;3.33;;;;;;;17.06;57.60;101228.34;4965439;28;20524;-84
2021/06/26 00:26:04;;;;;;;3.85;3.55;;;;;;;17.00;57.84;101229.41;4984673;28;20044;-83
2021/06/26 00:28:31;;;;;;;6.90;3.88;;;;;;;16.94;58.23;101223.41;4966399;28;20133;-84
2021/06/26 00:30:58;;;;;;;4.15;3.10;;;;;;;16.89;58.70;101227.91;4980597;28;20124;-85
2021/06/26 00:33:29;;;;;;;6.50;3.95;;;;;;;16.84;58.94;101231.56;4983135;28;20172;-84
2021/06/26 00:35:55;;;;;;;3.88;3.53;;;;;;;16.84;59.02;101222.72;4970780;28;20074;-83
2021/06/26 00:38:22;;;;;;;4.93;4.00;;;;;;;16.85;59.08;101229.75;4966602;28;20639;-83
2021/06/26 00:40:49;;;;;;;4.28;3.60;;;;;;;16.86;58.93;101229.72;4966757;28;20563;-83
2021/06/26 00:43:17;;;;;;;5.20;3.13;;;;;;;16.91;58.98;101229.66;4998622;28;20057;-83
2021/06/26 00:45:46;;;;;;;4.18;3.85;;;;;;;16.98;59.09;101233.00;4999648;28;20049;-84
2021/06/26 00:48:13;;;;;;;11.15;8.68;;;;;;;17.03;58.93;101236.38;4978371;28;20050;-82
2021/06/26 00:50:40;;;;;;;4.10;3.58;;;;;;;17.08;58.94;101236.25;4977154;28;20149;-84
2021/06/26 00:53:09;;;;;;;4.30;3.90;;;;;;;17.11;58.66;101230.91;4981859;28;20721;-85
2021/06/26 00:55:40;;;;;;;5.70;3.65;;;;;;;17.14;58.64;101228.16;4989546;28;20058;-82
2021/06/26 00:58:09;;;;;;;4.03;3.70;;;;;;;17.16;58.61;101229.00;4982412;28;20055;-82
2021/06/26 01:00:35;;;;;;;3.42;3.13;;;;;;;17.19;58.52;101221.84;4960680;28;20483;-83
2021/06/26 01:03:02;;;;;;;4.60;3.45;;;;;;;17.20;58.39;101223.56;4982965;28;20045;-83
2021/06/26 01:05:30;;;;;;;3.45;3.03;;;;;;;17.22;58.45;101225.31;4978202;28;20050;-82
2021/06/26 01:07:57;;;;;;;11.38;8.13;;;;;;;17.23;58.39;101219.97;4978706;28;20282;-82
2021/06/26 01:10:24;;;;;;;6.45;3.90;;;;;;;17.24;58.52;101220.84;4966133;28;20054;-83
2021/06/26 01:12:51;;;;;;;5.03;4.13;;;;;;;17.25;58.74;101225.19;4968951;28;20050;-83
2021/06/26 01:15:18;;;;;;;4.43;3.65;;;;;;;17.26;58.90;101226.94;4977420;28;20051;-83
2021/06/26 01:17:46;;;;;;;4.50;4.10;;;;;;;17.24;59.07;101234.06;4982512;28;20042;-82
2021/06/26 01:20:15;;;;;;;3.47;3.20;;;;;;;17.22;59.21;101233.25;4976817;28;20061;-84
2021/06/26 01:22:45;;;;;;;5.13;4.53;;;;;;;17.23;59.42;101234.97;4979644;28;20442;-83
2021/06/26 01:25:17;;;;;;;6.10;3.92;;;;;;;17.21;59.78;101235.03;4964151;28;20093;-83
2021/06/26 01:27:45;;;;;;;5.95;4.50;;;;;;;17.22;60.09;101235.88;4966389;28;20058;-83
2021/06/26 01:30:19;;;;;;;5.50;4.95;;;;;;;17.22;60.09;101239.38;4975567;28;20512;-83
2021/06/26 01:32:46;;;;;;;5.50;3.70;;;;;;;17.24;60.16;101236.72;5002801;28;20065;-83
2021/06/26 01:35:13;;;;;;;5.22;4.72;;;;;;;17.26;59.89;101234.88;4989981;28;20782;-82
2021/06/26 01:37:41;;;;;;;7.15;4.20;;;;;;;17.30;59.67;101236.53;4994861;28;20059;-83
2021/06/26 01:40:15;;;;;;;7.15;5.18;;;;;;;17.33;59.98;101231.16;4969583;28;20050;-85
2021/06/26 01:42:42;;;;;;;5.65;5.07;;;;;;;17.35;60.57;101237.28;4983386;28;20046;-82
2021/06/26 01:45:10;;;;;;;5.28;4.75;;;;;;;17.35;60.16;101227.56;4970963;28;20049;-83
2021/06/26 01:47:39;;;;;;;5.40;4.43;;;;;;;17.37;60.14;101232.81;4973784;28;20112;-82
2021/06/26 01:50:08;;;;;;;7.22;6.00;;;;;;;17.39;60.59;101231.00;4985415;28;20045;-82
2021/06/26 01:52:47;;;;;;;6.18;5.65;;;;;;;17.40;60.89;101224.78;4984528;28;20129;-83
2021/06/26 01:55:20;;;;;;;7.47;6.55;;;;;;;17.41;61.04;101223.03;4985302;28;20069;-83
2021/06/26 01:57:51;;;;;;;8.18;6.38;;;;;;;17.41;61.24;101223.03;4997568;28;20057;-83
2021/06/26 02:00:21;;;;;;;6.93;5.15;;;;;;;17.42;61.31;101228.25;4972369;28;20061;-83
2021/06/26 02:02:53;;;;;;;6.60;5.43;;;;;;;17.45;61.43;101229.97;4983199;28;20536;-83
2021/06/26 02:05:23;;;;;;;4.60;4.13;;;;;;;17.45;61.20;101227.31;4983892;28;20038;-83
2021/06/26 02:07:52;;;;;;;5.03;4.53;;;;;;;17.46;61.24;101226.41;4986256;28;20042;-84
2021/06/26 02:10:20;;;;;;;7.07;4.82;;;;;;;17.45;61.58;101228.16;4978102;28;20046;-84
2021/06/26 02:12:47;;;;;;;6.68;5.32;;;;;;;17.45;61.51;101224.66;4983206;28;20050;-83
2021/06/26 02:15:14;;;;;;;6.45;5.85;;;;;;;17.43;61.72;101231.75;4986455;28;20116;-83
2021/06/26 02:17:42;;;;;;;8.63;6.07;;;;;;;17.40;62.01;101227.44;4996149;28;20038;-84
2021/06/26 02:20:10;;;;;;;6.88;4.72;;;;;;;17.38;62.37;101223.09;4977907;28;20054;-83
2021/06/26 02:22:37;;;;;;;4.93;4.50;;;;;;;17.34;62.58;101220.53;4988209;28;20058;-82
2021/06/26 02:25:06;;;;;;;4.60;4.20;;;;;;;17.32;62.56;101217.06;4975484;28;20053;-83
2021/06/26 02:27:34;;;;;;;5.80;4.90;;;;;;;17.31;62.67;101214.44;4986075;28;20773;-83
2021/06/26 02:30:02;;;;;;;5.70;5.10;;;;;;;17.28;62.69;101217.19;4995438;28;20053;-82
2021/06/26 02:32:29;;;;;;;6.05;5.32;;;;;;;17.23;62.58;101214.66;5002622;28;20085;-82
2021/06/26 02:34:56;;;;;;;7.55;6.93;;;;;;;17.19;63.03;101218.31;4986724;28;20610;-84
2021/06/26 02:37:23;;;;;;;7.50;6.70;;;;;;;17.15;63.03;101214.88;4987361;28;20035;-82
2021/06/26 02:39:51;;;;;;;4.97;4.47;;;;;;;17.10;63.42;101223.84;4979407;28;20046;-85
2021/06/26 02:42:19;;;;;;;6.43;5.82;;;;;;;17.06;63.63;101219.56;4987048;28;20061;-82
2021/06/26 02:44:46;;;;;;;8.57;6.85;;;;;;;16.99;63.98;101222.38;4989789;28;20512;-83
2021/06/26 02:47:13;;;;;;;6.13;5.03;;;;;;;16.96;64.11;101225.09;5006741;28;20400;-82
2021/06/26 02:49:40;;;;;;;7.35;6.55;;;;;;;16.93;64.28;101227.81;4989408;28;20121;-82
2021/06/26 02:52:07;;;;;;;7.95;7.22;;;;;;;16.90;64.53;101224.38;5000894;28;20107;-84
2021/06/26 02:54:34;;;;;;;7.32;6.63;;;;;;;16.90;64.51;101224.38;4970488;28;20054;-82
2021/06/26 02:57:02;;;;;;;9.50;7.57;;;;;;;16.90;65.16;101227.91;5002136;28;20037;-83
2021/06/26 02:59:30;;;;;;;6.60;6.00;;;;;;;16.88;64.98;101216.44;4983720;28;20162;-82
2021/06/26 03:01:57;;;;;;;6.65;6.05;;;;;;;16.85;65.31;101217.41;4964990;28;20113;-84
2021/06/26 03:04:24;;;;;;;9.63;8.27;;;;;;;16.83;65.40;101229.81;4984113;28;20156;-84
2021/06/26 03:06:52;;;;;;;8.45;7.60;;;;;;;16.81;65.60;101228.97;4968168;28;20045;-84
2021/06/26 03:09:19;;;;;;;8.05;6.55;;;;;;;16.78;65.55;101221.13;4966035;28;20054;-83
2021/06/26 03:11:46;;;;;;;9.93;6.32;;;;;;;16.75;65.58;101220.34;4969901;28;20128;-84
2021/06/26 03:14:12;;;;;;;6.25;5.65;;;;;;;16.76;65.48;101227.38;4986680;28;20506;-84
2021/06/26 03:16:39;;;;;;;6.90;6.30;;;;;;;16.79;65.45;101230.81;4974174;28;20130;-83
2021/06/26 03:19:06;;;;;;;13.00;10.00;;;;;;;16.82;65.60;101228.06;5000730;28;20038;-84
2021/06/26 03:21:33;;;;;;;7.18;6.25;;;;;;;16.85;65.49;101227.13;4983000;28;20045;-83
2021/06/26 03:24:01;;;;;;;4.28;3.88;;;;;;;16.87;65.41;101228.81;4975345;28;20084;-83
2021/06/26 03:26:28;;;;;;;4.25;3.95;;;;;;;16.89;65.33;101233.22;4986946;28;20072;-84
2021/06/26 03:28:55;;;;;;;5.10;4.68;;;;;;;16.89;65.66;101236.69;4984147;28;20497;-82
2021/06/26 03:31:21;;;;;;;3.72;3.42;;;;;;;16.92;65.64;101235.78;4993593;28;20101;-84
2021/06/26 03:33:49;;;;;;;3.33;3.03;;;;;;;16.91;65.81;101229.66;4990556;28;20566;-84
2021/06/26 03:36:16;;;;;;;4.22;3.65;;;;;;;16.91;65.93;101232.28;4987790;28;20065;-84
2021/06/26 03:38:43;;;;;;;3.13;2.92;;;;;;;16.90;65.96;101230.53;4983001;28;20072;-84
2021/06/26 03:41:10;;;;;;;3.33;3.13;;;;;;;16.91;66.12;101240.22;4978505;28;20058;-84
2021/06/26 03:43:39;;;;;;;4.28;3.92;;;;;;;16.94;66.01;101239.28;4988591;28;20049;-84
2021/06/26 03:46:06;;;;;;;5.47;4.97;;;;;;;16.96;66.00;101248.03;4970673;28;20085;-85
2021/06/26 03:48:33;;;;;;;5.53;5.03;;;;;;;16.98;65.88;101241.78;4973092;28;20103;-84
2021/06/26 03:50:59;;;;;;;10.65;6.05;;;;;;;17.03;65.86;101242.53;4991727;28;20049;-84
2021/06/26 03:53:29;;;;;;;6.30;5.55;;;;;;;17.08;65.63;101242.44;4988769;28;20045;-84
2021/06/26 03:55:57;;;;;;;5.30;4.80;;;;;;;17.14;65.47;101246.66;4990008;28;20047;-84
2021/06/26 03:58:28;;;;;;;6.13;5.53;;;;;;;17.18;65.25;101246.56;4972520;28;20038;-84
2021/06/26 04:00:56;;;;;;;6.53;4.63;;;;;;;17.24;65.03;101247.31;4985520;28;20050;-85
2021/06/26 04:03:24;;;;;;;4.70;4.05;;;;;;;17.28;65.02;101241.00;5001954;28;20050;-84
2021/06/26 04:05:52;;;;;;;5.28;4.38;;;;;;;17.34;64.90;101244.34;4969554;28;20053;-83
2021/06/26 04:08:19;;;;;;;6.28;5.60;;;;;;;17.40;64.97;101243.31;4987089;28;20046;-84
2021/06/26 04:10:49;;;;;;;5.30;4.80;;;;;;;17.48;64.80;101243.97;4990146;28;20061;-83
2021/06/26 04:13:16;;;;;;;4.65;4.15;;;;;;;17.53;64.58;101247.38;4970842;28;20049;-83
2021/06/26 04:15:45;;;;;;;8.63;5.28;;;;;;;17.59;64.52;101251.59;5002351;28;20056;-83
2021/06/26 04:18:14;;;;;;;8.07;5.80;;;;;;;17.65;64.04;101255.84;4965641;28;20046;-82
2021/06/26 04:20:42;;;;;;;9.45;5.22;;;;;;;17.71;64.32;101255.66;4992497;28;20443;-85
2021/06/26 04:23:09;;;;;;;6.88;5.40;;;;;;;17.80;64.22;101251.91;4988262;28;20121;-84
2021/06/26 04:25:36;;;;;;;6.03;4.65;;;;;;;17.86;64.19;101262.31;5003493;28;20026;-85
2021/06/26 04:28:08;;;;;;;6.10;5.30;;;;;;;17.90;64.23;101248.06;5025539;28;20065;-85
2021/06/26 04:30:36;;;;;;;6.47;4.97;;;;;;;17.93;64.07;101255.94;5006863;28;20312;-84
2021/06/26 04:33:05;;;;;;;9.02;5.25;;;;;;;17.91;64.63;101260.38;5007352;28;20245;-84
2021/06/26 04:35:32;;;;;;;6.32;5.72;;;;;;;17.94;64.72;101264.72;5011497;28;20030;-84
2021/06/26 04:37:59;;;;;;;5.20;4.60;;;;;;;17.96;64.66;101262.91;5007494;28;20058;-84
2021/06/26 04:40:27;;;;;;;8.63;5.35;;;;;;;17.99;65.00;101266.34;5006409;28;20026;-85
2021/06/26 04:42:53;;;;;;;4.68;4.25;;;;;;;18.03;64.87;101272.44;4993739;28;20048;-84
2021/06/26 04:45:29;;;;;;;5.18;4.68;;;;;;;18.08;64.67;101273.16;5005112;28;20034;-85
2021/06/26 04:48:00;;;;;;;5.50;5.00;;;;;;;18.13;64.43;101276.53;5008595;28;20026;-84
2021/06/26 04:50:27;;;;;;;7.05;6.35;;;;;;;18.20;64.28;101279.88;5007798;28;20046;-84
2021/06/26 04:52:55;;;;;;;4.70;4.30;;;;;;;18.28;64.23;101272.53;5011623;28;20030;-85
2021/06/26 04:55:22;;;;;;;6.00;5.40;;;;;;;18.35;63.74;101283.81;4986320;28;20130;-84
2021/06/26 04:57:49;;;;;;;6.55;4.95;;;;;;;18.40;63.66;101284.53;4994830;28;20051;-84
2021/06/26 05:00:25;;;;;;;7.13;6.40;;;;;;;18.45;63.68;101279.09;4966963;28;20137;-86
2021/06/26 05:02:53;;;;;;;5.88;5.35;;;;;;;18.48;63.62;101277.19;4986772;28;20045;-84
2021/06/26 05:05:27;;;;;;;6.53;5.70;;;;;;;18.48;63.98;101271.88;4984576;28;20060;-85
2021/06/26 05:08:01;;;;;;;6.25;5.65;;;;;;;18.47;63.79;101275.47;5000304;28;20046;-83
2021/06/26 05:10:32;;;;;;;5.70;5.20;;;;;;;18.48;64.07;101276.34;4984839;28;20752;-84
2021/06/26 05:12:59;;;;;;;7.18;6.45;;;;;;;18.49;64.19;101281.59;4968825;28;20120;-83
2021/06/26 05:15:27;;;;;;;7.30;6.65;;;;;;;18.53;64.04;101279.72;4991151;28;20057;-81
2021/06/26 05:17:54;;;;;;;8.98;7.53;;;;;;;18.63;63.91;101274.97;4982354;28;20060;-84
2021/06/26 05:20:22;;;;;;;8.70;7.90;;;;;;;18.74;63.58;101278.13;4980950;28;20050;-85
2021/06/26 05:22:51;;;;;;;7.43;6.72;;;;;;;18.81;63.21;101276.13;4995876;28;20672;-84
2021/06/26 05:25:19;;;;;;;8.15;7.45;;;;;;;18.87;62.87;101277.75;4983461;28;20053;-84
2021/06/26 05:27:46;;;;;;;9.65;7.85;;;;;;;18.95;62.91;101271.25;4976977;28;20065;-84
2021/06/26 05:30:14;;;;;;;8.30;6.80;;;;;;;19.04;62.49;101274.53;4965366;28;20046;-84
2021/06/26 05:32:42;;;;;;;9.13;7.50;;;;;;;19.09;62.54;101262.84;5007453;28;20038;-82
2021/06/26 05:35:09;;;;;;;12.20;10.23;;;;;;;19.16;62.15;101272.34;5001749;28;20055;-84
2021/06/26 05:37:36;;;;;;;9.43;8.45;;;;;;;19.22;62.20;101273.91;4984524;28;20051;-85
2021/06/26 05:40:04;;;;;;;9.85;7.85;;;;;;;19.30;61.60;101273.63;4968518;28;20061;-84
2021/06/26 05:42:32;;;;;;;11.50;9.93;;;;;;;19.39;61.75;101269.78;4986949;28;20056;-83
2021/06/26 05:44:59;;;;;;;9.55;8.13;;;;;;;19.50;61.47;101267.59;4988860;28;20050;-83
2021/06/26 05:47:27;;;;;;;11.60;9.27;;;;;;;19.58;61.12;101276.16;4992112;28;20035;-84
2021/06/26 05:49:54;;;;;;;9.85;7.75;;;;;;;19.69;60.92;101283.72;4980390;28;20056;-83
2021/06/26 05:52:21;;;;;;;10.85;9.68;;;;;;;19.80;60.40;101280.66;4993734;28;20053;-83
2021/06/26 05:54:48;;;;;;;11.95;10.45;;;;;;;19.93;59.99;101281.97;4994881;28;20057;-84
2021/06/26 05:57:16;;;;;;;11.40;8.30;;;;;;;20.08;59.53;101285.81;4991694;28;20102;-83
2021/06/26 05:59:43;;;;;;;10.88;9.77;;;;;;;20.19;58.94;101281.88;4966174;28;20105;-85
2021/06/26 06:02:13;;;;;;;11.70;10.35;;;;;;;20.25;58.67;101282.50;4981943;28;20046;-85
2021/06/26 06:04:41;;;;;;;14.02;10.57;;;;;;;20.32;57.90;101284.00;4981527;28;20069;-83
2021/06/26 06:07:11;;;;;;;10.70;9.48;;;;;;;20.43;57.38;101280.91;4982003;28;20046;-84
2021/06/26 06:09:39;;;;;;;10.45;9.45;;;;;;;20.52;57.14;101285.00;4980069;28;20049;-84
2021/06/26 06:12:06;;;;;;;12.55;10.85;;;;;;;20.66;56.16;101279.09;4984925;28;20045;-84
2021/06/26 06:14:34;;;;;;;11.57;8.90;;;;;;;20.74;55.66;101278.81;4967535;28;20046;-83
2021/06/26 06:17:02;;;;;;;12.07;10.13;;;;;;;20.83;55.00;101275.75;4984520;28;20046;-84
2021/06/26 06:19:29;;;;;;;9.82;8.40;;;;;;;20.84;54.62;101284.63;4989471;28;20130;-83
2021/06/26 06:21:56;;;;;;;11.57;8.80;;;;;;;20.91;54.39;101284.31;4976879;28;20069;-84
2021/06/26 06:24:26;;;;;;;10.65;8.60;;;;;;;21.01;54.00;101297.22;4986766;28;20050;-83
2021/06/26 06:26:53;;;;;;;11.27;8.40;;;;;;;21.11;53.61;101298.56;4988727;28;20046;-83
2021/06/26 06:29:20;;;;;;;9.32;8.43;;;;;;;21.24;53.18;101293.56;4971986;28;20129;-82
2021/06/26 06:31:47;;;;;;;8.82;7.85;;;;;;;21.35;53.04;101301.94;4995369;28;20056;-86
2021/06/26 06:34:14;;;;;;;10.85;9.55;;;;;;;21.49;52.85;101304.84;4973865;28;20054;-83
2021/06/26 06:36:40;;;;;;;9.80;7.85;;;;;;;21.62;52.89;101315.00;4992825;28;20108;-84
2021/06/26 06:39:07;;;;;;;8.43;7.50;;;;;;;21.68;52.39;101304.06;4994564;28;20062;-84
2021/06/26 06:41:36;;;;;;;7.85;7.05;;;;;;;21.78;52.25;101304.50;4988457;28;20073;-84
2021/06/26 06:44:04;;;;;;;7.20;6.45;;;;;;;21.91;51.60;101311.00;5005932;28;20053;-85
2021/06/26 06:46:33;;;;;;;9.93;8.95;;;;;;;22.01;51.00;101311.44;5004394;28;20140;-83
2021/06/26 06:49:00;;;;;;;10.55;9.50;;;;;;;22.06;50.33;101319.22;4988323;28;20054;-83
2021/06/26 06:51:27;;;;;;;9.73;8.73;;;;;;;22.08;49.84;101318.22;4991153;28;20560;-86
2021/06/26 06:53:54;;;;;;;9.35;8.30;;;;;;;22.09;49.84;101319.94;4992119;28;20052;-84
2021/06/26 06:56:22;;;;;;;9.73;7.75;;;;;;;22.18;49.20;101317.81;4986989;28;20056;-85
2021/06/26 06:58:49;;;;;;;10.77;7.75;;;;;;;22.23;48.54;101323.78;4972915;28;20145;-84
2021/06/26 07:01:18;;;;;;;10.18;6.80;;;;;;;22.36;48.37;101318.72;4986096;28;20050;-85
2021/06/26 07:03:45;;;;;;;7.63;6.53;;;;;;;22.53;47.57;101310.78;4955333;28;20083;-84
2021/06/26 07:06:11;;;;;;;7.40;6.55;;;;;;;22.71;47.63;101321.50;4996179;28;20055;-85
2021/06/26 07:08:38;;;;;;;8.27;6.43;;;;;;;22.86;47.05;101318.06;4990170;28;20050;-85
2021/06/26 07:11:07;;;;;;;7.68;6.80;;;;;;;22.98;46.90;101321.91;4972970;28;20112;-85
2021/06/26 07:13:34;;;;;;;7.25;6.60;;;;;;;22.95;46.81;101325.59;4970552;28;20053;-85
2021/06/26 07:16:01;;;;;;;8.20;7.43;;;;;;;22.92;46.25;101331.13;4989429;28;20132;-85
2021/06/26 07:18:28;;;;;;;8.00;7.20;;;;;;;22.90;45.85;101324.97;4973638;28;20088;-86
2021/06/26 07:20:55;;;;;;;8.13;7.03;;;;;;;22.94;45.57;101323.91;4969083;28;20049;-85
2021/06/26 07:23:23;;;;;;;7.53;6.70;;;;;;;23.04;45.40;101326.09;5002050;28;20050;-83
2021/06/26 07:25:51;;;;;;;12.13;7.28;;;;;;;23.15;44.99;101323.75;4972166;28;21502;-84
2021/06/26 07:28:19;;;;;;;7.00;6.30;;;;;;;23.18;45.16;101323.63;4987744;28;20034;-84
2021/06/26 07:30:46;;;;;;;7.75;6.97;;;;;;;23.32;44.66;101325.56;5015478;28;20073;-87
2021/06/26 07:33:21;;;;;;;8.77;6.53;;;;;;;23.46;44.23;101324.84;4970187;28;20832;-85
2021/06/26 07:35:52;;;;;;;5.80;5.30;;;;;;;23.60;44.37;101329.47;4972506;28;20794;-82
2021/06/26 07:38:22;;;;;;;6.78;5.97;;;;;;;23.71;43.61;101327.06;4968577;28;20050;-85
2021/06/26 07:40:54;;;;;;;7.28;6.10;;;;;;;23.80;43.03;101320.38;4981331;28;20049;-85
2021/06/26 07:43:25;;;;;;;8.35;6.72;;;;;;;23.85;42.98;101320.13;4978009;28;20046;-85
2021/06/26 07:45:54;;;;;;;6.18;5.68;;;;;;;23.88;42.81;101312.78;4970099;28;20484;-84
2021/06/26 07:48:22;;;;;;;8.35;6.30;;;;;;;24.00;42.15;101319.34;4981694;28;20055;-84
2021/06/26 07:50:51;;;;;;;7.88;6.43;;;;;;;24.12;42.20;101317.78;4984288;28;20096;-85
2021/06/26 07:53:19;;;;;;;7.78;7.07;;;;;;;24.27;41.79;101316.94;4972507;28;20046;-85
2021/06/26 07:55:52;;;;;;;7.80;7.03;;;;;;;24.36;41.55;101312.84;4974215;28;20141;-84
2021/06/26 07:58:27;;;;;;;9.57;7.70;;;;;;;24.38;41.40;101315.44;4982952;28;20057;-83
2021/06/26 08:00:56;;;;;;;8.68;7.88;;;;;;;24.30;41.96;101318.56;4982589;28;20073;-84
2021/06/26 08:03:24;;;;;;;10.88;7.00;;;;;;;24.28;41.59;101310.59;4982137;28;20498;-84
2021/06/26 08:05:52;;;;;;;5.90;5.38;;;;;;;24.27;41.99;101310.69;4978984;28;20748;-86
2021/06/26 08:08:20;;;;;;;7.00;6.30;;;;;;;24.37;41.73;101311.91;4986208;28;20037;-84
2021/06/26 08:10:49;;;;;;;7.35;6.38;;;;;;;24.52;41.20;101312.88;5001135;28;20073;-85
2021/06/26 08:13:17;;;;;;;5.95;5.35;;;;;;;24.71;40.47;101314.50;4985045;28;20071;-84
2021/06/26 08:15:46;;;;;;;7.13;6.10;;;;;;;24.88;39.74;101305.47;4979871;28;20053;-85
2021/06/26 08:18:16;;;;;;;7.32;6.63;;;;;;;25.06;39.69;101303.53;4964846;28;20042;-87
2021/06/26 08:20:44;;;;;;;10.35;6.55;;;;;;;25.17;39.01;101303.72;4966603;28;20042;-86
2021/06/26 08:23:12;;;;;;;7.18;6.57;;;;;;;25.45;38.80;101299.41;4979794;28;20096;-84
2021/06/26 08:25:39;;;;;;;6.72;6.13;;;;;;;25.68;38.41;101310.53;4990412;28;20050;-85
2021/06/26 08:28:07;;;;;;;7.68;7.07;;;;;;;25.84;37.80;101297.00;4979536;28;20389;-85
2021/06/26 08:30:35;;;;;;;7.30;6.60;;;;;;;25.99;37.60;101298.72;4975923;28;20054;-85
2021/06/26 08:33:05;;;;;;;7.68;6.93;;;;;;;26.09;37.43;101299.03;4979952;28;20543;-87
2021/06/26 08:35:44;;;;;;;6.32;5.82;;;;;;;26.32;36.85;101297.53;4988783;28;20061;-83
2021/06/26 08:38:11;;;;;;;6.57;6.07;;;;;;;26.72;36.25;101302.13;5015163;28;20084;-83
2021/06/26 08:40:38;;;;;;;6.00;5.40;;;;;;;27.44;35.04;101301.69;4976756;28;20869;-86
2021/06/26 08:43:06;;;;;;;7.15;6.47;;;;;;;28.47;33.22;101292.56;4977374;28;20052;-85
2021/06/26 08:45:37;;;;;;;6.80;5.90;;;;;;;28.87;31.77;101292.28;4973208;28;20053;-84
2021/06/26 08:48:05;;;;;;;5.78;5.28;;;;;;;29.34;31.41;101289.59;4972571;28;20054;-85
2021/06/26 08:50:32;;;;;;;6.70;6.10;;;;;;;30.13;30.12;101286.91;4985354;28;20147;-85
2021/06/26 08:52:59;;;;;;;5.13;4.72;;;;;;;30.75;29.39;101291.75;4983406;28;20161;-87
2021/06/26 08:55:32;;;;;;;5.30;4.90;;;;;;;31.40;28.19;101288.94;4990005;28;20050;-88
2021/06/26 08:58:06;;;;;;;5.85;5.20;;;;;;;31.38;27.40;101275.53;4987964;28;20400;-86
2021/06/26 09:00:33;;;;;;;5.28;4.82;;;;;;;31.75;27.20;101280.41;4979682;28;20116;-87
2021/06/26 09:03:14;;;;;;;6.00;5.32;;;;;;;31.66;26.07;101279.38;4972796;28;20679;-88
2021/06/26 09:05:46;;;;;;;9.75;5.13;;;;;;;31.99;26.65;101281.91;4970227;28;20045;-84
2021/06/26 09:08:19;;;;;;;5.78;5.38;;;;;;;32.53;25.90;101287.00;4985931;28;20122;-84
2021/06/26 09:10:50;;;;;;;6.28;5.78;;;;;;;32.69;25.34;101284.56;4985166;28;20046;-85
2021/06/26 09:13:24;;;;;;;7.03;6.30;;;;;;;32.97;25.34;101293.72;4989476;28;20041;-84
2021/06/26 09:16:16;;;;;;;6.03;5.53;;;;;;;33.38;24.70;101292.66;4978346;28;20055;-87
2021/06/26 09:18:47;;;;;;;6.05;5.55;;;;;;;33.88;24.09;101289.59;4999352;28;20045;-87
2021/06/26 09:21:31;;;;;;;5.55;5.18;;;;;;;34.24;22.73;101289.66;4985210;28;20056;-85
2021/06/26 09:24:10;;;;;;;6.70;6.07;;;;;;;34.67;22.10;101289.03;4985793;28;20042;-87
2021/06/26 09:27:05;;;;;;;6.63;6.03;;;;;;;35.03;22.05;101289.03;4969750;28;20058;-87
2021/06/26 09:29:33;;;;;;;5.80;5.40;;;;;;;35.18;21.95;101287.44;4968685;28;20125;-85
2021/06/26 09:32:06;;;;;;;5.82;5.32;;;;;;;35.03;21.66;101287.19;4966386;28;20802;-86
2021/06/26 09:34:45;;;;;;;6.10;5.60;;;;;;;35.02;21.23;101290.91;4986870;28;20065;-84
2021/06/26 09:37:23;;;;;;;5.65;5.20;;;;;;;35.06;21.65;101280.56;4998810;28;20045;-86
2021/06/26 09:40:06;;;;;;;5.13;4.82;;;;;;;35.20;21.10;101282.69;4992370;28;20057;-88
2021/06/26 09:42:37;;;;;;;5.22;4.72;;;;;;;35.32;21.28;101279.69;4986590;28;20612;-87
2021/06/26 09:45:10;;;;;;;;;;;;;;;35.06;20.81;101272.41;4994059;28;20058;-87
2021/06/26 09:47:46;;;;;;;4.68;4.15;;;;;;;35.55;20.55;101280.88;4984657;28;19931;-88
2021/06/26 09:50:24;;;;;;;7.43;5.30;;;;;;;35.90;19.98;101276.25;4981383;28;20054;-86
2021/06/26 09:52:58;;;;;;;4.50;4.25;;;;;;;36.02;20.15;101275.94;4999342;28;20046;-87
2021/06/26 09:55:38;;;;;;;5.00;4.70;;;;;;;36.21;19.19;101280.25;4987637;28;20046;-87
2021/06/26 09:58:11;;;;;;;4.85;4.55;;;;;;;36.38;19.68;101270.25;4973262;28;20041;-85
2021/06/26 10:00:42;;;;;;;5.22;4.65;;;;;;;36.74;19.09;101273.50;5004636;28;20069;-87
2021/06/26 10:03:11;;;;;;;5.38;4.97;;;;;;;36.57;19.31;101267.19;5012125;28;20069;-86
2021/06/26 10:05:42;;;;;;;4.95;4.03;;;;;;;36.41;19.33;101269.91;5004579;28;20042;-87
2021/06/26 10:08:10;;;;;;;4.63;4.07;;;;;;;36.72;19.36;101263.78;5001664;28;20587;-88
2021/06/26 10:10:37;;;;;;;7.07;4.47;;;;;;;37.14;18.56;101261.88;5004748;28;20026;-87
2021/06/26 10:13:04;;;;;;;5.78;5.30;;;;;;;36.68;18.42;101266.00;5007978;28;20041;-87
2021/06/26 10:15:34;;;;;;;4.60;4.30;;;;;;;36.78;18.84;101264.97;5010571;28;20076;-89
2021/06/26 10:18:04;;;;;;;4.88;4.47;;;;;;;36.34;19.03;101264.28;4959007;28;20101;-89
2021/06/26 10:20:31;;;;;;;3.92;3.63;;;;;;;36.47;19.32;101271.13;4977986;28;20156;-89
2021/06/26 10:23:03;;;;;;;5.63;3.58;;;;;;;36.81;19.07;101254.56;4976822;28;20053;-85
2021/06/26 10:25:40;;;;;;;4.47;3.78;;;;;;;37.39;18.71;101263.53;4975892;28;20141;-87
2021/06/26 10:28:13;;;;;;;3.38;3.17;;;;;;;37.98;18.01;101256.78;4991394;28;20136;-86
2021/06/26 10:30:41;;;;;;;4.40;4.10;;;;;;;38.52;17.28;101253.16;4985850;28;20052;-86
2021/06/26 10:33:13;;;;;;;4.82;4.28;;;;;;;38.49;17.10;101266.38;4979124;28;20049;-87
2021/06/26 10:35:53;;;;;;;;;;;;;;;38.65;17.21;101255.25;4991015;28;20128;-87
2021/06/26 10:38:20;;;;;;;3.70;3.40;;;;;;;38.98;16.63;101252.25;4993356;28;19930;-88
2021/06/26 10:40:52;;;;;;;4.63;4.25;;;;;;;38.94;16.98;101259.13;4991168;28;20052;-85
2021/06/26 10:43:33;;;;;;;4.85;4.13;;;;;;;39.33;16.40;101263.50;4992678;28;20594;-87
2021/06/26 10:46:20;;;;;;;3.53;3.20;;;;;;;39.79;15.81;101254.22;5000252;28;20069;-87
2021/06/26 10:49:06;;;;;;;3.22;2.97;;;;;;;39.88;16.02;101260.41;5003593;28;20049;-87
2021/06/26 10:51:39;;;;;;;3.83;3.60;;;;;;;40.40;15.09;101263.09;4988922;28;20046;-85
2021/06/26 10:54:18;;;;;;;3.90;3.50;;;;;;;40.27;15.40;101259.16;5017375;28;20064;-86
2021/06/26 10:56:49;;;;;;;4.53;3.25;;;;;;;38.87;16.31;101259.03;5012664;28;20085;-84
2021/06/26 10:59:21;;;;;;;4.75;4.40;;;;;;;37.25;17.73;101256.03;4995264;28;20057;-84
2021/06/26 11:02:00;;;;;;;3.13;3.00;;;;;;;35.69;18.99;101263.03;4994632;28;20078;-87
2021/06/26 11:04:28;;;;;;;4.30;3.90;;;;;;;33.94;20.65;101258.25;4987451;28;20057;-84
2021/06/26 11:07:13;;;;;;;3.17;2.97;;;;;;;32.25;22.39;101252.47;4977670;28;20054;-85
2021/06/26 11:09:43;;;;;;;3.63;3.42;;;;;;;32.06;22.73;101247.00;4993144;28;20570;-84
2021/06/26 11:12:21;;;;;;;3.55;3.35;;;;;;;31.90;22.88;101251.13;4982175;28;20325;-86
2021/06/26 11:14:51;;;;;;;3.45;3.25;;;;;;;31.56;23.38;101256.81;4992209;28;20038;-86
2021/06/26 11:17:23;;;;;;;2.83;2.72;;;;;;;31.76;23.34;101246.06;4980487;28;20041;-86
2021/06/26 11:19:52;;;;;;;3.17;2.97;;;;;;;31.68;23.25;101249.50;5010641;28;20052;-84
2021/06/26 11:22:19;;;;;;;3.50;3.30;;;;;;;31.24;23.54;101246.13;5010704;28;20447;-85
2021/06/26 11:25:00;;;;;;;3.72;3.42;;;;;;;30.85;24.30;101244.88;4976460;28;20041;-83
2021/06/26 11:27:29;;;;;;;3.60;3.30;;;;;;;30.58;24.92;101250.78;4991765;28;20093;-82
2021/06/26 11:30:07;;;;;;;3.25;3.00;;;;;;;31.08;24.10;101247.47;4977657;28;20084;-86
2021/06/26 11:32:36;;;;;;;2.30;2.20;;;;;;;31.54;23.99;101247.97;5017418;28;20334;-87
2021/06/26 11:35:13;;;;;;;3.42;2.55;;;;;;;31.42;24.26;101247.22;5003600;28;20050;-84